| time (UTC) | temp C | wind direction | speed KPH | gust KPH | rain 1hr cm | rain 24hr cm | rain mn cm | humidity % | barometer mb |
| 20260904210715 | 28 | 323 | 0.0 | 4.8 | 0.00 | 0.13 | 0.00 | 72 | 1011.8 |
| 20260904205734 | 28 | 323 | 1.6 | 4.8 | 0.00 | 0.13 | 0.00 | 70 | 1011.8 |
| 20260904205231 | 28 | 323 | 1.6 | 9.7 | 0.00 | 0.13 | 0.00 | 71 | 1011.9 |
| 20260904204733 | 28 | 323 | 3.2 | 9.7 | 0.00 | 0.13 | 0.00 | 71 | 1011.8 |
| 20260904204719 | 28 | 323 | 3.2 | 8.0 | 0.00 | 0.13 | 0.00 | 71 | 1011.8 |
| 20260904203728 | 28 | 309 | 3.2 | 9.7 | 0.00 | 0.13 | 0.00 | 70 | 1011.6 |
| 20260904203231 | 28 | 275 | 3.2 | 9.7 | 0.00 | 0.13 | 0.00 | 69 | 1011.6 |
| 20260904202727 | 28 | 332 | 3.2 | 16.1 | 0.00 | 0.13 | 0.00 | 67 | 1011.6 |
| 20260904202229 | 29 | 330 | 4.8 | 16.1 | 0.00 | 0.13 | 0.00 | 65 | 1011.5 |
| 20260904201727 | 30 | 315 | 3.2 | 9.7 | 0.00 | 0.13 | 0.00 | 65 | 1011.5 |
| 20260904201504 | 29 | 346 | 4.8 | 16.1 | 0.00 | 0.13 | 0.00 | 67 | 1011.5 |
| 20260904200726 | 29 | 14 | 4.8 | 16.1 | 0.00 | 0.13 | 0.00 | 65 | 1011.5 |
| 20260904200450 | 29 | 253 | 4.8 | 14.5 | 0.00 | 0.13 | 0.00 | 66 | 1011.5 |
| 20260904195731 | 29 | 315 | 6.4 | 20.9 | 0.00 | 0.13 | 0.00 | 68 | 1011.6 |
| 20260904195227 | 29 | 306 | 4.8 | 20.9 | 0.00 | 0.13 | 0.00 | 66 | 1011.7 |
| 20260904194727 | 29 | 304 | 3.2 | 14.5 | 0.00 | 0.13 | 0.00 | 66 | 1011.9 |
| 20260904194712 | 29 | 331 | 3.2 | 14.5 | 0.00 | 0.13 | 0.00 | 68 | 1012.0 |
| 20260904193728 | 28 | 272 | 1.6 | 6.4 | 0.00 | 0.13 | 0.00 | 69 | 1012.0 |
| 20260904193226 | 28 | 329 | 3.2 | 14.5 | 0.00 | 0.13 | 0.00 | 69 | 1012.2 |
| 20260904192723 | 28 | 329 | 4.8 | 14.5 | 0.00 | 0.13 | 0.00 | 70 | 1012.2 |
| 20260904192224 | 28 | 325 | 4.8 | 11.3 | 0.00 | 0.13 | 0.00 | 71 | 1012.3 |
| 20260904191947 | 28 | 313 | 4.8 | 11.3 | 0.00 | 0.13 | 0.00 | 67 | 1012.5 |
| 20260904191224 | 28 | 325 | 4.8 | 8.0 | 0.00 | 0.13 | 0.00 | 68 | 1012.5 |
| 20260904190723 | 28 | 325 | 4.8 | 19.3 | 0.00 | 0.13 | 0.00 | 68 | 1012.5 |
| 20260904190216 | 28 | 267 | 6.4 | 19.3 | 0.00 | 0.13 | 0.00 | 66 | 1012.6 |
| 20260904185936 | 29 | 270 | 6.4 | 16.1 | 0.00 | 0.13 | 0.00 | 68 | 1012.7 |
| 20260904185203 | 28 | 317 | 6.4 | 19.3 | 0.00 | 0.13 | 0.00 | 67 | 1012.7 |
| 20260904184701 | 29 | 310 | 6.4 | 19.3 | 0.00 | 0.13 | 0.00 | 66 | 1012.7 |
| 20260904184200 | 29 | 269 | 6.4 | 16.1 | 0.00 | 0.13 | 0.00 | 66 | 1012.8 |
| 20260904183654 | 30 | 67 | 6.4 | 16.1 | 0.00 | 0.13 | 0.00 | 64 | 1012.8 |
| 20260904183152 | 30 | 278 | 4.8 | 14.5 | 0.00 | 0.13 | 0.00 | 68 | 1012.8 |
| 20260904182655 | 30 | 248 | 4.8 | 12.9 | 0.00 | 0.13 | 0.00 | 66 | 1012.8 |
| 20260904182154 | 29 | 328 | 4.8 | 11.3 | 0.00 | 0.13 | 0.00 | 65 | 1012.9 |
| 20260904181651 | 29 | 336 | 6.4 | 16.1 | 0.00 | 0.13 | 0.00 | 66 | 1012.9 |
| 20260904181414 | 29 | 0 | 6.4 | 16.1 | 0.00 | 0.13 | 0.00 | 72 | 1013.0 |
| 20260904180651 | 29 | 18 | 4.8 | 12.9 | 0.00 | 0.13 | 0.00 | 68 | 1012.9 |
| 20260904180155 | 29 | 247 | 4.8 | 12.9 | 0.00 | 0.13 | 0.00 | 69 | 1012.9 |
| 20260904175650 | 28 | 269 | 4.8 | 12.9 | 0.00 | 0.13 | 0.00 | 70 | 1012.9 |
| 20260904175150 | 28 | 217 | 3.2 | 11.3 | 0.00 | 0.13 | 0.00 | 71 | 1013.0 |
| 20260904174650 | 28 | 261 | 3.2 | 12.9 | 0.00 | 0.13 | 0.00 | 69 | 1013.0 |
| 20260904174150 | 28 | 253 | 4.8 | 17.7 | 0.00 | 0.13 | 0.00 | 72 | 1013.0 |
| 20260904173653 | 28 | 334 | 4.8 | 17.7 | 0.00 | 0.13 | 0.00 | 69 | 1013.1 |
| 20260904173152 | 28 | 331 | 6.4 | 14.5 | 0.00 | 0.13 | 0.00 | 72 | 1013.0 |
| 20260904172922 | 28 | 331 | 6.4 | 14.5 | 0.00 | 0.13 | 0.00 | 69 | 1013.0 |
| 20260904172148 | 28 | 5 | 6.4 | 17.7 | 0.00 | 0.13 | 0.00 | 68 | 1013.1 |
| 20260904171644 | 28 | 345 | 6.4 | 17.7 | 0.00 | 0.13 | 0.00 | 70 | 1013.2 |
| 20260904171142 | 28 | 304 | 4.8 | 14.5 | 0.00 | 0.13 | 0.00 | 69 | 1013.2 |
| 20260904170639 | 28 | 250 | 4.8 | 14.5 | 0.00 | 0.13 | 0.00 | 73 | 1013.3 |
| 20260904170140 | 28 | 338 | 4.8 | 12.9 | 0.00 | 0.13 | 0.00 | 71 | 1013.3 |
| 20260904165638 | 28 | 315 | 4.8 | 12.9 | 0.00 | 0.13 | 0.00 | 71 | 1013.2 |
| 20260904165403 | 28 | 322 | 4.8 | 16.1 | 0.00 | 0.13 | 0.00 | 70 | 1013.1 |
| 20260904164635 | 28 | 355 | 4.8 | 16.1 | 0.00 | 0.13 | 0.00 | 74 | 1013.2 |
| 20260904164616 | 28 | 248 | 3.2 | 14.5 | 0.00 | 0.13 | 0.00 | 72 | 1013.2 |
| 20260904163635 | 28 | 321 | 4.8 | 14.5 | 0.00 | 0.13 | 0.00 | 71 | 1013.3 |
| 20260904163400 | 27 | 333 | 4.8 | 14.5 | 0.00 | 0.13 | 0.00 | 72 | 1013.3 |
| 20260904162633 | 27 | 219 | 4.8 | 14.5 | 0.00 | 0.13 | 0.00 | 71 | 1013.3 |
| 20260904162131 | 28 | 246 | 4.8 | 11.3 | 0.00 | 0.13 | 0.00 | 70 | 1013.4 |
| 20260904161632 | 28 | 306 | 4.8 | 14.5 | 0.00 | 0.13 | 0.00 | 72 | 1013.4 |
| 20260904161136 | 27 | 263 | 8.0 | 17.7 | 0.00 | 0.13 | 0.00 | 71 | 1013.4 |
| 20260904160631 | 27 | 0 | 9.7 | 20.9 | 0.00 | 0.13 | 0.00 | 71 | 1013.3 |
| 20260904160354 | 27 | 20 | 9.7 | 20.9 | 0.00 | 0.13 | 0.00 | 72 | 1013.3 |
| 20260904155632 | 27 | 5 | 8.0 | 17.7 | 0.00 | 0.13 | 0.00 | 71 | 1013.4 |
| 20260904155134 | 27 | 355 | 8.0 | 19.3 | 0.00 | 0.13 | 0.00 | 71 | 1013.4 |
| 20260904154631 | 27 | 317 | 9.7 | 19.3 | 0.00 | 0.13 | 0.00 | 70 | 1013.5 |
| 20260904154128 | 27 | 349 | 6.4 | 19.3 | 0.00 | 0.13 | 0.00 | 73 | 1013.5 |
| 20260904153628 | 27 | 236 | 6.4 | 16.1 | 0.00 | 0.13 | 0.00 | 71 | 1013.6 |
| 20260904153349 | 27 | 355 | 8.0 | 16.1 | 0.00 | 0.13 | 0.00 | 71 | 1013.6 |
| 20260904152630 | 27 | 273 | 6.4 | 14.5 | 0.00 | 0.13 | 0.00 | 73 | 1013.5 |
| 20260904152411 | 27 | 338 | 8.0 | 24.1 | 0.00 | 0.13 | 0.00 | 71 | 1013.5 |
| 20260904151629 | 27 | 329 | 9.7 | 24.1 | 0.00 | 0.13 | 0.00 | 73 | 1013.6 |
| 20260904151142 | 27 | 340 | 6.4 | 20.9 | 0.00 | 0.13 | 0.00 | 73 | 1013.6 |
| 20260904150857 | 27 | 327 | 4.8 | 14.5 | 0.00 | 0.13 | 0.00 | 73 | 1013.4 |
| 20260904150128 | 27 | 315 | 6.4 | 17.7 | 0.00 | 0.13 | 0.00 | 73 | 1013.4 |
| 20260904145628 | 27 | 0 | 6.4 | 17.7 | 0.00 | 0.13 | 0.00 | 75 | 1013.5 |
| 20260904145339 | 27 | 240 | 6.4 | 17.7 | 0.00 | 0.13 | 0.00 | 74 | 1013.5 |
| 20260904144625 | 26 | 28 | 8.0 | 22.5 | 0.00 | 0.13 | 0.00 | 76 | 1013.4 |
| 20260904144125 | 26 | 343 | 9.7 | 22.5 | 0.00 | 0.13 | 0.00 | 75 | 1013.4 |
| 20260904143624 | 26 | 0 | 8.0 | 17.7 | 0.00 | 0.13 | 0.00 | 75 | 1013.5 |
| 20260904143123 | 26 | 319 | 6.4 | 16.1 | 0.00 | 0.13 | 0.00 | 76 | 1013.6 |
| 20260904142623 | 26 | 244 | 4.8 | 14.5 | 0.00 | 0.13 | 0.00 | 77 | 1013.5 |
| 20260904142123 | 26 | 270 | 3.2 | 14.5 | 0.00 | 0.13 | 0.00 | 77 | 1013.5 |
| 20260904141625 | 26 | 73 | 4.8 | 14.5 | 0.00 | 0.13 | 0.00 | 76 | 1013.5 |
| 20260904141122 | 26 | 74 | 3.2 | 14.5 | 0.00 | 0.13 | 0.00 | 78 | 1013.4 |
| 20260904140852 | 26 | 9 | 3.2 | 11.3 | 0.00 | 0.13 | 0.00 | 78 | 1013.3 |
| 20260904140342 | 26 | 9 | 4.8 | 17.7 | 0.00 | 0.13 | 0.00 | 79 | 1013.2 |
| 20260904135624 | 25 | 9 | 6.4 | 17.7 | 0.00 | 0.13 | 0.00 | 80 | 1013.2 |
| 20260904135124 | 25 | 336 | 9.7 | 24.1 | 0.00 | 0.13 | 0.00 | 80 | 1013.1 |
| 20260904134625 | 25 | 309 | 8.0 | 24.1 | 0.00 | 0.13 | 0.00 | 79 | 1013.1 |
| 20260904134359 | 25 | 350 | 4.8 | 16.1 | 0.00 | 0.13 | 0.00 | 81 | 1013.1 |
| 20260904133624 | 25 | 0 | 4.8 | 16.1 | 0.00 | 0.13 | 0.00 | 82 | 1013.1 |
| 20260904133354 | 25 | 355 | 3.2 | 12.9 | 0.00 | 0.13 | 0.00 | 81 | 1013.1 |
| 20260904132623 | 25 | 263 | 4.8 | 16.1 | 0.00 | 0.13 | 0.00 | 81 | 1013.2 |
| 20260904132339 | 25 | 302 | 4.8 | 16.1 | 0.00 | 0.13 | 0.00 | 83 | 1013.2 |
| 20260904131625 | 24 | 288 | 4.8 | 14.5 | 0.00 | 0.13 | 0.00 | 83 | 1013.2 |
| 20260904131123 | 24 | 322 | 3.2 | 14.5 | 0.00 | 0.13 | 0.00 | 83 | 1013.2 |
| 20260904130622 | 24 | 279 | 3.2 | 14.5 | 0.00 | 0.13 | 0.00 | 83 | 1013.2 |
| 20260904130123 | 24 | 334 | 3.2 | 14.5 | 0.00 | 0.13 | 0.00 | 84 | 1013.3 |
| 20260904125622 | 23 | 234 | 3.2 | 14.5 | 0.00 | 0.13 | 0.00 | 84 | 1013.4 |
| 20260904125122 | 23 | 308 | 1.6 | 16.1 | 0.00 | 0.13 | 0.00 | 85 | 1013.5 |
| 20260904124624 | 23 | 308 | 3.2 | 16.1 | 0.00 | 0.13 | 0.00 | 86 | 1013.4 |
| 20260904124121 | 23 | 250 | 3.2 | 12.9 | 0.00 | 0.13 | 0.00 | 86 | 1013.4 |
| 20260904123847 | 23 | 311 | 1.6 | 12.9 | 0.00 | 0.13 | 0.00 | 86 | 1013.5 |
| 20260904123356 | 23 | 277 | 1.6 | 9.7 | 0.00 | 0.13 | 0.00 | 87 | 1013.7 |
| 20260904122842 | 22 | 5 | 3.2 | 16.1 | 0.00 | 0.13 | 0.00 | 87 | 1013.8 |
| 20260904122127 | 22 | 323 | 4.8 | 16.1 | 0.00 | 0.13 | 0.00 | 87 | 1013.8 |
| 20260904121612 | 22 | 319 | 4.8 | 12.9 | 0.00 | 0.13 | 0.00 | 87 | 1013.7 |
| 20260904121112 | 22 | 262 | 4.8 | 17.7 | 0.00 | 0.13 | 0.00 | 88 | 1013.7 |
| 20260904120613 | 22 | 316 | 4.8 | 17.7 | 0.00 | 0.13 | 0.00 | 88 | 1013.6 |
| 20260904120126 | 22 | 319 | 3.2 | 12.9 | 0.00 | 0.13 | 0.00 | 88 | 1013.5 |
| 20260904115612 | 22 | 263 | 3.2 | 12.9 | 0.00 | 0.13 | 0.00 | 89 | 1013.5 |
| 20260904115113 | 22 | 0 | 3.2 | 12.9 | 0.00 | 0.13 | 0.00 | 90 | 1013.5 |
| 20260904114834 | 21 | 247 | 1.6 | 12.9 | 0.00 | 0.13 | 0.00 | 90 | 1013.5 |
| 20260904114111 | 21 | 242 | 1.6 | 8.0 | 0.00 | 0.13 | 0.00 | 90 | 1013.6 |
| 20260904113609 | 21 | 240 | 1.6 | 6.4 | 0.00 | 0.13 | 0.00 | 91 | 1013.5 |
| 20260904113326 | 21 | 240 | 1.6 | 4.8 | 0.00 | 0.13 | 0.00 | 91 | 1013.5 |
| 20260904112608 | 21 | 240 | 1.6 | 4.8 | 0.00 | 0.13 | 0.00 | 91 | 1013.4 |
| 20260904112106 | 21 | 236 | 1.6 | 4.8 | 0.00 | 0.13 | 0.00 | 91 | 1013.4 |
| 20260904111823 | 21 | 236 | 1.6 | 6.4 | 0.00 | 0.13 | 0.00 | 91 | 1013.4 |
| 20260904111332 | 21 | 236 | 1.6 | 6.4 | 0.00 | 0.13 | 0.00 | 92 | 1013.2 |
| 20260904110608 | 21 | 236 | 1.6 | 6.4 | 0.00 | 0.13 | 0.00 | 92 | 1013.2 |
| 20260904110327 | 20 | 236 | 0.0 | 6.4 | 0.00 | 0.13 | 0.00 | 92 | 1013.0 |
| 20260904105603 | 20 | 235 | 0.0 | 3.2 | 0.00 | 0.13 | 0.00 | 92 | 1012.9 |
| 20260904105321 | 20 | 233 | 0.0 | 0.0 | 0.00 | 0.15 | 0.00 | 92 | 1012.9 |
| 20260904104608 | 20 | 233 | 0.0 | 0.0 | 0.00 | 0.15 | 0.00 | 92 | 1012.8 |
| 20260904104101 | 20 | 233 | 0.0 | 0.0 | 0.00 | 0.18 | 0.00 | 92 | 1012.8 |
| 20260904103601 | 20 | 233 | 0.0 | 0.0 | 0.00 | 0.18 | 0.00 | 92 | 1012.8 |
| 20260904103102 | 20 | 233 | 0.0 | 0.0 | 0.00 | 0.18 | 0.00 | 92 | 1012.7 |
| 20260904102559 | 21 | 233 | 0.0 | 0.0 | 0.00 | 0.18 | 0.00 | 92 | 1012.7 |
| 20260904102059 | 21 | 233 | 0.0 | 0.0 | 0.00 | 0.20 | 0.00 | 92 | 1012.6 |
| 20260904101558 | 21 | 233 | 0.0 | 0.0 | 0.00 | 0.20 | 0.00 | 92 | 1012.6 |
| 20260904101059 | 21 | 233 | 0.0 | 0.0 | 0.00 | 0.20 | 0.00 | 92 | 1012.5 |
| 20260904100559 | 21 | 233 | 0.0 | 0.0 | 0.00 | 0.20 | 0.00 | 92 | 1012.4 |
| 20260904100332 | 21 | 233 | 0.0 | 0.0 | 0.00 | 0.20 | 0.00 | 91 | 1012.3 |
| 20260904095758 | 21 | 233 | 0.0 | 0.0 | 0.00 | 0.20 | 0.00 | 91 | 1012.5 |
| 20260904095644 | 21 | 233 | 0.0 | 0.0 | 0.00 | 0.20 | 0.00 | 91 | 1012.3 |
| 20260904094551 | 21 | 233 | 0.0 | 0.0 | 0.00 | 0.20 | 0.00 | 91 | 1012.5 |
| 20260904094053 | 21 | 233 | 0.0 | 0.0 | 0.00 | 0.20 | 0.00 | 91 | 1012.5 |
| 20260904093550 | 21 | 234 | 0.0 | 0.0 | 0.00 | 0.23 | 0.00 | 90 | 1012.5 |
| 20260904093050 | 21 | 234 | 0.0 | 0.0 | 0.00 | 0.53 | 0.00 | 90 | 1012.5 |
| 20260904092550 | 21 | 234 | 0.0 | 0.0 | 0.00 | 0.56 | 0.00 | 90 | 1012.6 |
| 20260904092045 | 22 | 233 | 0.0 | 0.0 | 0.00 | 0.56 | 0.00 | 90 | 1012.6 |
| 20260904091544 | 22 | 234 | 0.0 | 0.0 | 0.00 | 0.58 | 0.00 | 90 | 1012.7 |
| 20260904091041 | 22 | 233 | 0.0 | 0.0 | 0.00 | 0.58 | 0.00 | 90 | 1012.7 |
| 20260904090545 | 22 | 234 | 0.0 | 3.2 | 0.00 | 0.58 | 0.00 | 90 | 1012.8 |
| 20260904090057 | 22 | 234 | 0.0 | 3.2 | 0.00 | 0.58 | 0.00 | 90 | 1012.8 |
| 20260904085541 | 22 | 233 | 0.0 | 3.2 | 0.00 | 0.61 | 0.00 | 90 | 1012.8 |
| 20260904085039 | 22 | 233 | 0.0 | 3.2 | 0.00 | 0.76 | 0.00 | 90 | 1012.8 |
| 20260904084806 | 22 | 233 | 1.6 | 4.8 | 0.00 | 0.76 | 0.00 | 89 | 1012.7 |
| 20260904084037 | 22 | 234 | 3.2 | 8.0 | 0.00 | 0.76 | 0.00 | 89 | 1012.9 |
| 20260904083536 | 22 | 239 | 1.6 | 8.0 | 0.00 | 0.76 | 0.00 | 89 | 1013.0 |
| 20260904083037 | 22 | 252 | 1.6 | 4.8 | 0.00 | 0.76 | 0.00 | 89 | 1013.0 |
| 20260904082540 | 22 | 255 | 1.6 | 4.8 | 0.00 | 0.76 | 0.00 | 89 | 1012.9 |
| 20260904082038 | 22 | 255 | 0.0 | 3.2 | 0.00 | 0.84 | 0.00 | 89 | 1013.0 |
| 20260904081547 | 22 | 256 | 0.0 | 4.8 | 0.00 | 1.07 | 0.00 | 90 | 1013.0 |
| 20260904081036 | 22 | 256 | 0.0 | 4.8 | 0.00 | 1.22 | 0.00 | 90 | 1012.9 |
| 20260904080530 | 22 | 254 | 0.0 | 0.0 | 0.00 | 1.22 | 0.00 | 90 | 1013.0 |
| 20260904080250 | 22 | 254 | 0.0 | 3.2 | 0.00 | 1.22 | 0.00 | 90 | 1012.8 |
| 20260904075527 | 22 | 254 | 0.0 | 4.8 | 0.00 | 1.24 | 0.00 | 90 | 1012.8 |
| 20260904075249 | 22 | 254 | 0.0 | 4.8 | 0.00 | 1.24 | 0.00 | 91 | 1012.8 |
| 20260904074527 | 22 | 255 | 0.0 | 3.2 | 0.00 | 1.24 | 0.00 | 91 | 1012.8 |
| 20260904074029 | 22 | 255 | 1.6 | 8.0 | 0.00 | 1.24 | 0.00 | 91 | 1012.9 |
| 20260904073527 | 22 | 254 | 0.0 | 8.0 | 0.00 | 1.24 | 0.00 | 91 | 1013.0 |
| 20260904073022 | 22 | 298 | 0.0 | 3.2 | 0.00 | 1.24 | 0.00 | 91 | 1013.0 |
| 20260904072742 | 22 | 298 | 0.0 | 1.6 | 0.00 | 1.24 | 0.00 | 92 | 1012.9 |
| 20260904072011 | 22 | 298 | 1.6 | 6.4 | 0.00 | 1.24 | 0.00 | 92 | 1012.8 |
| 20260904071946 | 22 | 298 | 1.6 | 9.7 | 0.00 | 1.24 | 0.00 | 93 | 1012.8 |
| 20260904070957 | 22 | 265 | 1.6 | 9.7 | 0.00 | 1.24 | 0.00 | 93 | 1012.6 |
| 20260904070454 | 22 | 325 | 0.0 | 3.2 | 0.00 | 1.24 | 0.00 | 93 | 1012.5 |
| 20260904070218 | 22 | 325 | 0.0 | 0.0 | 0.00 | 1.24 | 0.00 | 93 | 1012.5 |
| 20260904065453 | 22 | 325 | 0.0 | 0.0 | 0.00 | 1.24 | 0.00 | 93 | 1012.3 |
| 20260904064952 | 22 | 325 | 0.0 | 3.2 | 0.00 | 1.24 | 0.00 | 93 | 1012.2 |
| 20260904064451 | 22 | 325 | 1.6 | 3.2 | 0.00 | 1.24 | 0.00 | 92 | 1012.0 |
| 20260904063951 | 22 | 325 | 0.0 | 3.2 | 0.00 | 1.24 | 0.00 | 92 | 1011.7 |
| 20260904063451 | 22 | 325 | 0.0 | 3.2 | 0.00 | 1.24 | 0.00 | 92 | 1011.6 |
| 20260904062948 | 22 | 325 | 0.0 | 3.2 | 0.00 | 1.24 | 0.00 | 92 | 1011.5 |
| 20260904062446 | 22 | 325 | 0.0 | 3.2 | 0.00 | 1.24 | 0.00 | 92 | 1011.3 |
| 20260904062221 | 22 | 325 | 0.0 | 3.2 | 0.00 | 1.24 | 0.00 | 92 | 1011.4 |
| 20260904061737 | 22 | 325 | 0.0 | 6.4 | 0.00 | 1.24 | 0.00 | 91 | 1011.4 |
| 20260904061454 | 22 | 325 | 0.0 | 3.2 | 0.00 | 1.24 | 0.00 | 91 | 1011.5 |
| 20260904060437 | 23 | 325 | 1.6 | 6.4 | 0.00 | 1.24 | 0.00 | 91 | 1011.5 |
| 20260904055942 | 23 | 325 | 0.0 | 4.8 | 0.00 | 1.24 | 0.00 | 91 | 1011.5 |
| 20260904055438 | 23 | 326 | 0.0 | 8.0 | 0.00 | 1.24 | 0.00 | 91 | 1011.5 |
| 20260904054940 | 23 | 326 | 1.6 | 8.0 | 0.00 | 1.24 | 0.00 | 91 | 1011.7 |
| 20260904054436 | 23 | 321 | 1.6 | 6.4 | 0.00 | 1.27 | 0.00 | 91 | 1011.8 |
| 20260904053935 | 23 | 325 | 1.6 | 6.4 | 0.00 | 1.32 | 0.00 | 92 | 1012.0 |
| 20260904053436 | 23 | 323 | 1.6 | 8.0 | 0.00 | 1.63 | 0.00 | 92 | 1012.2 |
| 20260904052935 | 23 | 321 | 1.6 | 8.0 | 0.00 | 2.41 | 0.00 | 92 | 1012.3 |
| 20260904052434 | 23 | 262 | 1.6 | 6.4 | 0.00 | 2.74 | 0.00 | 93 | 1012.5 |
| 20260904051929 | 23 | 317 | 1.6 | 9.7 | 0.00 | 2.74 | 0.00 | 93 | 1012.3 |
| 20260904051651 | 23 | 279 | 1.6 | 9.7 | 0.00 | 2.74 | 0.00 | 93 | 1012.3 |
| 20260904050931 | 23 | 249 | 0.0 | 0.0 | 0.00 | 2.74 | 0.00 | 93 | 1012.3 |
| 20260904050430 | 23 | 249 | 0.0 | 0.0 | 0.00 | 2.77 | 0.00 | 93 | 1012.1 |
| 20260904045929 | 23 | 249 | 0.0 | 0.0 | 0.00 | 3.10 | 0.00 | 93 | 1012.0 |
| 20260904045428 | 23 | 249 | 0.0 | 0.0 | 0.00 | 3.30 | 0.00 | 93 | 1012.0 |
| 20260904044923 | 23 | 249 | 0.0 | 0.0 | 0.00 | 3.30 | 0.00 | 93 | 1012.0 |
| 20260904044649 | 23 | 249 | 0.0 | 0.0 | 0.00 | 3.30 | 0.00 | 93 | 1011.9 |
| 20260904043918 | 23 | 249 | 0.0 | 0.0 | 0.00 | 3.30 | 0.00 | 93 | 1012.0 |
| 20260904043419 | 23 | 249 | 0.0 | 0.0 | 0.00 | 3.30 | 0.00 | 93 | 1012.1 |
| 20260904043145 | 23 | 249 | 0.0 | 0.0 | 0.00 | 3.30 | 0.00 | 93 | 1012.2 |
| 20260904042906 | 23 | 249 | 0.0 | 3.2 | 0.00 | 3.30 | 0.00 | 93 | 1012.3 |
| 20260904041919 | 23 | 249 | 0.0 | 3.2 | 0.00 | 3.30 | 0.00 | 93 | 1012.3 |
| 20260904041419 | 23 | 249 | 0.0 | 0.0 | 0.00 | 3.30 | 0.00 | 93 | 1012.5 |
| 20260904040916 | 23 | 249 | 0.0 | 0.0 | 0.05 | 3.30 | 0.00 | 93 | 1012.6 |
| 20260904040413 | 23 | 249 | 0.0 | 0.0 | 0.13 | 3.30 | 0.00 | 93 | 1012.7 |
| 20260904040143 | 23 | 249 | 0.0 | 0.0 | 0.13 | 3.30 | 3.30 | 93 | 1012.7 |
| 20260904035633 | 23 | 249 | 0.0 | 0.0 | 0.13 | 3.30 | 3.30 | 93 | 1012.8 |
| 20260904034913 | 23 | 249 | 0.0 | 0.0 | 0.13 | 3.30 | 3.30 | 93 | 1013.0 |
| 20260904034413 | 23 | 249 | 0.0 | 1.6 | 0.13 | 3.30 | 3.30 | 93 | 1013.3 |
| 20260904033915 | 23 | 249 | 0.0 | 3.2 | 0.13 | 3.30 | 3.30 | 93 | 1013.4 |
| 20260904033645 | 23 | 249 | 0.0 | 3.2 | 0.13 | 3.30 | 3.30 | 92 | 1013.4 |
| 20260904032915 | 23 | 249 | 0.0 | 3.2 | 0.13 | 3.30 | 3.30 | 92 | 1013.5 |
| 20260904032418 | 23 | 249 | 1.6 | 4.8 | 0.13 | 3.30 | 3.30 | 92 | 1013.4 |
| 20260904031916 | 23 | 249 | 1.6 | 4.8 | 0.13 | 3.30 | 3.30 | 92 | 1013.3 |
| 20260904031413 | 23 | 249 | 1.6 | 6.4 | 0.13 | 3.30 | 3.30 | 92 | 1013.4 |
| 20260904030913 | 24 | 248 | 1.6 | 6.4 | 0.08 | 3.25 | 3.28 | 92 | 1013.7 |
| 20260904030413 | 24 | 252 | 0.0 | 0.0 | 0.00 | 3.17 | 3.17 | 92 | 1013.6 |
| 20260904025913 | 24 | 252 | 0.0 | 0.0 | 0.00 | 3.17 | 3.17 | 92 | 1013.4 |
| 20260904025412 | 24 | 252 | 0.0 | 0.0 | 0.00 | 3.17 | 3.17 | 92 | 1013.4 |
| 20260904024914 | 24 | 252 | 0.0 | 0.0 | 0.00 | 3.17 | 3.17 | 92 | 1013.5 |
| 20260904024413 | 24 | 252 | 0.0 | 0.0 | 0.00 | 3.17 | 3.17 | 92 | 1013.5 |
| 20260904024137 | 23 | 252 | 0.0 | 0.0 | 0.00 | 3.17 | 3.17 | 92 | 1013.4 |
| 20260904023411 | 23 | 252 | 0.0 | 0.0 | 0.00 | 3.17 | 3.17 | 92 | 1013.5 |
| 20260904022917 | 23 | 252 | 0.0 | 0.0 | 0.00 | 3.17 | 3.17 | 92 | 1013.5 |
| 20260904022413 | 23 | 252 | 0.0 | 0.0 | 0.00 | 3.17 | 3.17 | 91 | 1013.5 |
| 20260904021912 | 23 | 252 | 0.0 | 0.0 | 0.00 | 3.17 | 3.17 | 91 | 1013.4 |
| 20260904021411 | 23 | 252 | 0.0 | 0.0 | 0.00 | 3.17 | 3.17 | 91 | 1013.4 |
| 20260904020913 | 24 | 252 | 0.0 | 0.0 | 0.00 | 3.17 | 3.17 | 91 | 1013.5 |
| 20260904020411 | 24 | 252 | 0.0 | 0.0 | 0.00 | 3.17 | 3.17 | 91 | 1013.3 |
| 20260904015914 | 24 | 252 | 0.0 | 0.0 | 0.00 | 3.17 | 3.17 | 91 | 1013.2 |
| 20260904015415 | 24 | 252 | 0.0 | 0.0 | 0.00 | 3.17 | 3.17 | 91 | 1013.2 |
| 20260904014913 | 24 | 252 | 0.0 | 1.6 | 0.00 | 3.17 | 3.17 | 91 | 1013.1 |
| 20260904014417 | 24 | 252 | 1.6 | 3.2 | 0.00 | 3.17 | 3.17 | 91 | 1013.1 |
| 20260904013910 | 24 | 252 | 0.0 | 3.2 | 0.00 | 3.17 | 3.17 | 91 | 1013.2 |
| 20260904013409 | 24 | 252 | 0.0 | 1.6 | 0.00 | 3.17 | 3.17 | 91 | 1013.2 |
| 20260904013139 | 24 | 252 | 0.0 | 1.6 | 0.00 | 3.17 | 3.17 | 91 | 1013.3 |
| 20260904012408 | 24 | 252 | 0.0 | 1.6 | 0.00 | 3.17 | 3.17 | 91 | 1013.4 |
| 20260904011908 | 24 | 252 | 0.0 | 0.0 | 0.00 | 3.17 | 3.17 | 91 | 1013.5 |
| 20260904011407 | 24 | 252 | 0.0 | 0.0 | 0.00 | 3.17 | 3.17 | 91 | 1013.5 |
| 20260904010906 | 24 | 252 | 0.0 | 0.0 | 0.00 | 3.17 | 3.17 | 91 | 1013.6 |
| 20260904010418 | 24 | 252 | 0.0 | 0.0 | 0.00 | 3.17 | 3.17 | 91 | 1013.7 |
| 20260904005907 | 24 | 252 | 0.0 | 0.0 | 0.00 | 3.17 | 3.17 | 91 | 1013.9 |
| 20260904005409 | 24 | 252 | 0.0 | 0.0 | 0.00 | 3.17 | 3.17 | 91 | 1014.0 |
| 20260904004905 | 24 | 252 | 0.0 | 0.0 | 0.00 | 3.17 | 3.17 | 91 | 1014.0 |
| 20260904004405 | 24 | 252 | 0.0 | 0.0 | 0.00 | 3.17 | 3.17 | 90 | 1013.9 |
| 20260904003906 | 24 | 252 | 0.0 | 1.6 | 0.00 | 3.17 | 3.17 | 90 | 1014.0 |
| 20260904003619 | 24 | 252 | 0.0 | 1.6 | 0.00 | 3.17 | 3.17 | 90 | 1013.9 |
| 20260904002853 | 24 | 252 | 0.0 | 0.0 | 0.00 | 3.17 | 3.17 | 90 | 1013.8 |
| 20260904002611 | 24 | 252 | 0.0 | 0.0 | 0.00 | 3.17 | 3.17 | 90 | 1013.8 |
| 20260904001842 | 25 | 252 | 0.0 | 0.0 | 0.00 | 3.17 | 3.17 | 90 | 1013.7 |
| 20260904001338 | 25 | 252 | 0.0 | 1.6 | 0.00 | 3.17 | 3.17 | 89 | 1013.8 |
| 20260904000833 | 25 | 252 | 0.0 | 1.6 | 0.00 | 3.17 | 3.17 | 89 | 1013.6 |
| 20260904000334 | 25 | 252 | 0.0 | 0.0 | 0.00 | 3.17 | 3.17 | 89 | 1013.7 |
| 20260903235831 | 25 | 252 | 0.0 | 0.0 | 0.00 | 3.17 | 3.17 | 88 | 1013.7 |
| 20260903235328 | 25 | 252 | 0.0 | 0.0 | 0.00 | 3.17 | 3.17 | 88 | 1013.5 |
| 20260903234828 | 25 | 252 | 0.0 | 0.0 | 0.00 | 3.17 | 3.17 | 88 | 1013.4 |
| 20260903234329 | 25 | 252 | 0.0 | 0.0 | 0.00 | 3.17 | 3.17 | 87 | 1013.2 |
| 20260903233827 | 25 | 252 | 0.0 | 0.0 | 0.00 | 3.17 | 3.17 | 86 | 1013.1 |
| 20260903233328 | 25 | 252 | 0.0 | 0.0 | 0.00 | 3.17 | 3.17 | 87 | 1013.2 |
| 20260903233056 | 26 | 252 | 0.0 | 0.0 | 0.00 | 3.17 | 3.17 | 86 | 1013.2 |
| 20260903232326 | 26 | 252 | 0.0 | 1.6 | 0.00 | 3.17 | 3.17 | 86 | 1013.2 |
| 20260903231825 | 26 | 252 | 0.0 | 1.6 | 0.00 | 3.17 | 3.17 | 84 | 1013.3 |
| 20260903231335 | 26 | 252 | 0.0 | 0.0 | 0.00 | 3.17 | 3.17 | 82 | 1013.5 |
| 20260903231327 | 26 | 252 | 0.0 | 0.0 | 0.00 | 3.17 | 3.17 | 83 | 1013.3 |
| 20260903230325 | 26 | 252 | 0.0 | 0.0 | 0.00 | 3.17 | 3.17 | 83 | 1013.4 |
| 20260903230315 | 27 | 252 | 0.0 | 0.0 | 0.00 | 3.17 | 3.17 | 82 | 1013.4 |
| 20260903225324 | 27 | 252 | 0.0 | 0.0 | 0.00 | 3.17 | 3.17 | 81 | 1013.2 |
| 20260903224825 | 27 | 252 | 0.0 | 1.6 | 0.00 | 3.17 | 3.17 | 81 | 1013.0 |
| 20260903224321 | 27 | 252 | 0.0 | 4.8 | 0.00 | 3.17 | 3.17 | 77 | 1013.0 |
| 20260903223822 | 28 | 252 | 1.6 | 4.8 | 0.00 | 3.17 | 3.17 | 76 | 1013.0 |
| 20260903223318 | 28 | 253 | 0.0 | 3.2 | 0.00 | 3.17 | 3.17 | 76 | 1013.0 |
| 20260903223036 | 28 | 253 | 1.6 | 4.8 | 0.00 | 3.17 | 3.17 | 73 | 1012.9 |
| 20260903222309 | 29 | 253 | 3.2 | 4.8 | 0.00 | 3.17 | 3.17 | 71 | 1012.8 |
| 20260903221810 | 29 | 254 | 3.2 | 6.4 | 0.00 | 3.17 | 3.17 | 71 | 1012.7 |
| 20260903221308 | 29 | 254 | 3.2 | 11.3 | 0.00 | 3.17 | 3.17 | 70 | 1012.8 |
| 20260903220807 | 29 | 253 | 4.8 | 11.3 | 0.00 | 3.17 | 3.17 | 71 | 1012.9 |
| 20260903220308 | 29 | 219 | 4.8 | 12.9 | 0.00 | 3.17 | 3.17 | 69 | 1012.9 |
| 20260903215804 | 30 | 259 | 4.8 | 12.9 | 0.00 | 3.17 | 3.17 | 69 | 1012.9 |
| 20260903215306 | 30 | 302 | 4.8 | 12.9 | 0.00 | 3.17 | 3.17 | 69 | 1012.9 |
| 20260903215032 | 30 | 212 | 4.8 | 12.9 | 0.00 | 3.17 | 3.17 | 69 | 1012.9 |
| 20260903214535 | 30 | 271 | 3.2 | 8.0 | 0.00 | 3.17 | 3.17 | 71 | 1012.8 |
| 20260903214033 | 30 | 246 | 1.6 | 8.0 | 0.00 | 3.17 | 3.17 | 71 | 1012.8 |
| 20260903213305 | 30 | 250 | 1.6 | 8.0 | 0.00 | 3.17 | 3.17 | 71 | 1012.6 |
| 20260903212806 | 30 | 250 | 1.6 | 6.4 | 0.00 | 3.17 | 3.17 | 70 | 1012.5 |
| 20260903212307 | 30 | 250 | 3.2 | 8.0 | 0.00 | 3.17 | 3.17 | 68 | 1012.5 |
| 20260903212258 | 30 | 250 | 1.6 | 8.0 | 0.00 | 3.17 | 3.17 | 68 | 1012.5 |
| 20260903211308 | 30 | 250 | 3.2 | 6.4 | 0.00 | 3.17 | 3.17 | 68 | 1012.5 |
| 20260903210810 | 30 | 250 | 3.2 | 11.3 | 0.00 | 3.17 | 3.17 | 67 | 1012.4 |